Time;durP1;ratioP1;P1;durP2;ratioP2;P2;SDS_P1;SDS_P2;PMS_P1;PMS_P2;Temp;Humidity;BMP_temperature;BMP_pressure;BME280_temperature;BME280_humidity;BME280_pressure;Samples;Min_cycle;Max_cycle;Signal;HPM_P1;HPM_P2
2022/01/08 00:00:11;;;;;;;10.20;3.60;;;2.10;99.90;;;;;;5086483;27;114539;-71
2022/01/08 00:02:39;;;;;;;12.60;3.70;;;2.00;99.90;;;;;;5101472;28;20048;-70
2022/01/08 00:05:05;;;;;;;12.63;3.90;;;1.90;99.90;;;;;;5084615;27;263657;-71
2022/01/08 00:07:31;;;;;;;12.40;3.83;;;1.90;99.90;;;;;;5101832;28;20051;-69
2022/01/08 00:09:57;;;;;;;11.80;3.28;;;1.90;99.90;;;;;;5072932;27;250173;-70
2022/01/08 00:12:24;;;;;;;10.40;3.00;;;1.90;99.90;;;;;;5099610;28;20055;-70
2022/01/08 00:14:50;;;;;;;11.77;3.33;;;1.90;99.90;;;;;;5094793;27;254547;-70
2022/01/08 00:17:16;;;;;;;13.18;3.30;;;1.80;99.90;;;;;;5103017;28;20059;-69
2022/01/08 00:19:43;;;;;;;11.20;3.50;;;1.80;99.90;;;;;;5085888;27;221581;-69
2022/01/08 00:22:11;;;;;;;18.38;3.92;;;1.80;99.90;;;;;;5104699;28;20064;-69
2022/01/08 00:24:37;;;;;;;12.70;3.50;;;1.80;99.90;;;;;;5086582;27;181625;-70
2022/01/08 00:27:04;;;;;;;13.55;4.00;;;1.80;99.90;;;;;;5101920;28;20051;-69
2022/01/08 00:29:30;;;;;;;13.40;4.32;;;1.80;99.90;;;;;;5085491;27;257227;-69
2022/01/08 00:31:56;;;;;;;16.63;4.60;;;1.80;99.90;;;;;;5098256;28;20051;-68
2022/01/08 00:34:22;;;;;;;14.93;4.43;;;1.80;99.90;;;;;;5091078;28;67349;-70
2022/01/08 00:36:48;;;;;;;16.27;4.57;;;1.80;99.90;;;;;;5096303;28;20523;-70
2022/01/08 00:39:15;;;;;;;12.05;4.53;;;1.80;99.90;;;;;;5096113;27;54190;-70
2022/01/08 00:41:41;;;;;;;14.38;4.80;;;1.80;99.90;;;;;;5098293;28;20043;-70
2022/01/08 00:44:07;;;;;;;11.93;3.92;;;1.80;99.90;;;;;;5093214;27;81104;-70
2022/01/08 00:46:34;;;;;;;11.88;3.70;;;1.80;99.90;;;;;;5102860;28;20055;-70
2022/01/08 00:49:01;;;;;;;16.17;4.18;;;1.90;99.90;;;;;;5070085;27;141228;-70
2022/01/08 00:51:28;;;;;;;15.27;4.03;;;1.90;99.90;;;;;;5100245;28;20052;-71
2022/01/08 00:53:54;;;;;;;11.80;4.30;;;2.00;99.90;;;;;;5085009;27;265986;-70
2022/01/08 00:56:20;;;;;;;15.98;4.60;;;1.90;99.90;;;;;;5100726;28;20082;-70
2022/01/08 00:58:46;;;;;;;12.90;5.05;;;1.90;99.90;;;;;;5084843;27;268234;-70
2022/01/08 01:01:12;;;;;;;13.32;5.22;;;1.90;99.90;;;;;;5099353;28;20055;-70
2022/01/08 01:03:39;;;;;;;13.93;5.85;;;1.90;99.90;;;;;;5071901;28;251699;-71
2022/01/08 01:06:06;;;;;;;15.45;6.18;;;1.90;99.90;;;;;;5104619;27;20051;-70
2022/01/08 01:08:33;;;;;;;17.45;6.32;;;1.90;99.90;;;;;;5101380;28;20056;-70
2022/01/08 01:11:00;;;;;;;18.48;6.50;;;1.90;99.90;;;;;;5094600;28;20925;-70
2022/01/08 01:13:26;;;;;;;18.58;7.30;;;2.00;99.90;;;;;;5100582;28;20052;-70
2022/01/08 01:15:52;;;;;;;16.48;6.85;;;2.00;99.90;;;;;;5068366;27;25894;-70
2022/01/08 01:18:18;;;;;;;15.93;7.10;;;2.00;99.90;;;;;;5099384;28;20055;-70
2022/01/08 01:20:45;;;;;;;18.23;6.93;;;2.00;99.90;;;;;;5085143;27;228768;-70
2022/01/08 01:23:14;;;;;;;18.85;6.75;;;1.90;99.90;;;;;;5103017;28;20059;-70
2022/01/08 01:25:51;;;;;;;17.23;7.05;;;1.90;99.90;;;;;;5071524;28;216601;-71
2022/01/08 01:47:17;;;;;;;19.92;8.10;;;1.70;99.90;;;;;;5107705;27;20676;-69
2022/01/08 01:49:46;;;;;;;21.50;8.40;;;1.70;99.90;;;;;;5088773;27;123589;-69
2022/01/08 01:52:15;;;;;;;19.55;9.50;;;1.70;99.90;;;;;;5105683;27;20075;-69
2022/01/08 01:54:43;;;;;;;26.83;10.55;;;1.80;99.90;;;;;;5082554;27;205635;-70
2022/01/08 01:57:12;;;;;;;23.42;10.55;;;1.80;99.90;;;;;;5098500;27;20143;-70
2022/01/08 01:59:40;;;;;;;23.00;10.65;;;1.80;99.90;;;;;;5084980;27;267937;-69
2022/01/08 02:02:06;;;;;;;23.92;10.80;;;1.90;99.90;;;;;;5096407;28;20508;-70
2022/01/08 02:04:32;;;;;;;32.40;12.30;;;1.80;99.90;;;;;;5071533;27;199678;-70
2022/01/08 02:06:59;;;;;;;24.45;11.18;;;1.90;99.90;;;;;;5098090;28;20381;-69
2022/01/08 02:09:25;;;;;;;23.40;11.55;;;1.90;99.90;;;;;;5085768;27;269620;-69
2022/01/08 02:12:06;;;;;;;24.80;12.15;;;1.90;99.90;;;;;;5096500;28;20063;-69
2022/01/08 02:14:35;;;;;;;26.45;11.15;;;1.90;99.90;;;;;;5085024;27;227340;-70
2022/01/08 02:17:03;;;;;;;24.50;11.25;;;1.90;99.90;;;;;;5101465;28;20062;-69
2022/01/08 02:19:29;;;;;;;23.48;10.48;;;1.90;99.90;;;;;;5087117;27;180898;-69
2022/01/08 02:22:01;;;;;;;20.98;11.40;;;1.90;99.90;;;;;;5109040;27;20070;-70
2022/01/08 02:24:27;;;;;;;;;;;1.90;99.90;;;;;;5087009;27;119045;-69
2022/01/08 02:26:53;;;;;;;21.88;10.57;;;1.90;99.90;;;;;;5109472;27;19926;-69
2022/01/08 02:29:22;;;;;;;23.55;10.38;;;1.90;99.90;;;;;;5083651;28;132139;-69
2022/01/08 02:31:55;;;;;;;24.85;10.13;;;1.80;99.90;;;;;;5100307;28;20052;-69
2022/01/08 02:34:22;;;;;;;22.23;9.80;;;1.80;99.90;;;;;;5092069;28;112226;-69
2022/01/08 02:36:49;;;;;;;21.15;9.73;;;1.70;99.90;;;;;;5099401;28;20515;-69
2022/01/08 02:39:15;;;;;;;24.40;10.73;;;1.70;99.90;;;;;;5090047;27;259282;-69
2022/01/08 02:41:41;;;;;;;22.55;10.48;;;1.60;99.90;;;;;;5113720;27;20549;-69
2022/01/08 02:44:07;;;;;;;23.38;10.57;;;1.60;99.90;;;;;;5086917;27;262639;-69
2022/01/08 02:46:33;;;;;;;24.45;10.88;;;1.60;99.90;;;;;;5101695;28;20062;-69
2022/01/08 02:49:00;;;;;;;26.48;10.40;;;1.50;99.90;;;;;;5091780;28;85687;-69
2022/01/08 02:51:26;;;;;;;26.05;10.05;;;1.50;99.90;;;;;;5111850;27;20051;-70
2022/01/08 02:53:52;;;;;;;24.00;10.13;;;1.50;99.90;;;;;;5084527;27;266714;-69
2022/01/08 02:56:18;;;;;;;21.90;9.38;;;1.40;99.90;;;;;;5117487;27;20412;-69
2022/01/08 02:58:44;;;;;;;19.88;8.18;;;1.40;99.90;;;;;;5084734;27;263681;-69
2022/01/08 03:01:10;;;;;;;20.42;8.90;;;1.40;99.90;;;;;;5098044;28;20488;-68
2022/01/08 03:03:36;;;;;;;22.50;8.85;;;1.30;99.90;;;;;;5073688;28;274478;-68
2022/01/08 03:06:02;;;;;;;17.80;8.63;;;1.40;99.90;;;;;;5097093;28;20051;-69
2022/01/08 03:08:28;;;;;;;26.15;9.07;;;1.30;99.90;;;;;;5100913;28;20035;-69
2022/01/08 03:10:55;;;;;;;21.38;9.07;;;1.30;99.90;;;;;;5085246;28;165050;-70
2022/01/08 03:13:21;;;;;;;21.92;9.10;;;1.30;99.90;;;;;;5100285;28;20028;-69
2022/01/08 03:15:47;;;;;;;24.17;8.65;;;1.30;99.90;;;;;;5085624;28;155134;-69
2022/01/08 03:18:13;;;;;;;19.20;7.88;;;1.30;99.90;;;;;;5101380;28;20365;-70
2022/01/08 03:20:47;;;;;;;21.17;8.02;;;1.30;99.90;;;;;;5087178;27;154930;-69
2022/01/08 03:23:16;;;;;;;20.33;7.43;;;1.30;99.90;;;;;;5107548;28;20522;-69
2022/01/08 03:25:44;;;;;;;21.63;7.05;;;1.30;99.90;;;;;;5097858;27;271421;-69
2022/01/08 03:28:11;;;;;;;22.63;7.25;;;1.30;99.90;;;;;;5104339;28;20132;-70
2022/01/08 03:30:39;;;;;;;20.63;6.80;;;1.30;99.90;;;;;;5100782;27;274601;-69
2022/01/08 03:33:06;;;;;;;20.00;6.97;;;1.30;99.90;;;;;;5102053;28;20028;-69
2022/01/08 03:35:33;;;;;;;21.10;6.97;;;1.30;99.90;;;;;;5087555;27;62929;-69
2022/01/08 03:37:59;;;;;;;18.42;7.63;;;1.30;99.90;;;;;;5102633;28;20056;-68
2022/01/08 03:40:25;;;;;;;20.58;7.05;;;1.30;99.90;;;;;;5097785;27;265092;-69
2022/01/08 03:42:51;;;;;;;18.60;7.07;;;1.20;99.90;;;;;;5105657;27;20070;-70
2022/01/08 03:45:17;;;;;;;20.65;7.35;;;1.20;99.90;;;;;;5091380;27;170725;-69
2022/01/08 03:50:28;;;;;;;21.75;7.80;;;1.20;99.90;;;;;;5102506;27;265003;-69
2022/01/08 03:52:54;;;;;;;22.67;8.02;;;1.10;99.90;;;;;;5103671;27;20519;-69
2022/01/08 03:55:22;;;;;;;19.95;7.65;;;1.10;99.90;;;;;;5099528;27;271641;-69
2022/01/08 03:57:48;;;;;;;25.25;8.18;;;1.10;99.90;;;;;;5108260;27;20055;-69
2022/01/08 04:00:14;;;;;;;19.42;7.32;;;1.20;99.90;;;;;;5089864;27;120140;-68
2022/01/08 04:02:41;;;;;;;17.33;7.20;;;1.20;99.90;;;;;;5105521;27;20416;-69
2022/01/08 04:05:07;;;;;;;22.77;6.32;;;1.20;99.90;;;;;;5066323;27;192055;-69
2022/01/08 04:07:33;;;;;;;16.92;6.50;;;1.30;99.90;;;;;;5107323;28;20090;-68
2022/01/08 04:09:59;;;;;;;17.77;6.07;;;1.20;99.90;;;;;;5092383;27;84936;-69
2022/01/08 04:12:38;;;;;;;16.98;6.13;;;1.20;99.90;;;;;;5100490;28;20048;-68
2022/01/08 04:15:09;;;;;;;15.30;5.55;;;1.20;99.90;;;;;;5074784;28;149995;-69
2022/01/08 04:17:35;;;;;;;18.25;5.50;;;1.20;99.90;;;;;;5100125;28;20059;-70
2022/01/08 04:20:02;;;;;;;14.63;4.88;;;1.30;99.90;;;;;;5095718;27;254754;-69
2022/01/08 04:22:28;;;;;;;15.73;5.35;;;1.40;99.90;;;;;;5101343;28;20047;-69
2022/01/08 04:24:56;;;;;;;18.88;5.32;;;1.40;99.90;;;;;;5096514;27;252789;-69
2022/01/08 04:27:22;;;;;;;19.00;5.40;;;1.40;99.90;;;;;;5104609;28;20052;-69
2022/01/08 04:29:48;;;;;;;16.45;5.50;;;1.40;99.90;;;;;;5079450;28;91198;-68
2022/01/08 04:32:14;;;;;;;15.60;5.13;;;1.40;99.90;;;;;;5081536;28;20468;-68
2022/01/08 04:34:40;;;;;;;18.80;5.20;;;1.40;99.90;;;;;;5084517;28;252763;-68
2022/01/08 04:37:06;;;;;;;15.70;6.30;;;1.40;99.90;;;;;;5103994;28;20071;-69
2022/01/08 04:39:33;;;;;;;16.25;6.95;;;1.40;99.90;;;;;;5087699;27;147192;-69
2022/01/08 04:41:59;;;;;;;20.80;7.10;;;1.40;99.90;;;;;;5101097;28;20047;-69
2022/01/08 04:44:25;;;;;;;22.08;7.60;;;1.30;99.90;;;;;;5092126;27;58375;-69
2022/01/08 04:46:51;;;;;;;22.98;7.57;;;1.30;99.90;;;;;;5099393;28;20047;-70
2022/01/08 04:49:17;;;;;;;22.00;8.25;;;1.30;99.90;;;;;;5095958;27;75499;-69
2022/01/08 04:51:43;;;;;;;22.52;8.25;;;1.30;99.90;;;;;;5097725;28;20415;-69
2022/01/08 04:54:09;;;;;;;23.58;8.57;;;1.30;99.90;;;;;;5093036;27;252179;-69
2022/01/08 04:56:35;;;;;;;25.27;8.70;;;1.30;99.90;;;;;;5112136;27;20048;-69
2022/01/08 04:59:02;;;;;;;20.13;9.52;;;1.30;99.90;;;;;;5087113;27;276932;-68
2022/01/08 05:01:28;;;;;;;25.73;9.88;;;1.40;99.90;;;;;;5101176;28;20048;-68
2022/01/08 05:03:54;;;;;;;29.20;9.90;;;1.40;99.90;;;;;;5069624;27;256289;-68
2022/01/08 05:06:20;;;;;;;24.92;9.30;;;1.40;99.90;;;;;;5103739;27;20036;-69
2022/01/08 05:08:46;;;;;;;23.65;9.88;;;1.50;99.90;;;;;;5087103;27;254369;-70
2022/01/08 05:11:12;;;;;;;22.45;9.50;;;1.50;99.90;;;;;;5113835;27;20056;-69
2022/01/08 05:13:38;;;;;;;26.80;9.73;;;1.60;99.90;;;;;;5087781;27;259093;-69
2022/01/08 05:16:05;;;;;;;22.17;9.10;;;1.50;99.90;;;;;;5101975;28;20048;-69
2022/01/08 05:18:33;;;;;;;24.35;9.40;;;1.50;99.90;;;;;;5105099;28;20431;-69
2022/01/08 05:21:19;;;;;;;24.20;8.82;;;1.50;99.90;;;;;;5091168;28;20040;-69
2022/01/08 05:23:45;;;;;;;23.55;8.95;;;1.50;99.90;;;;;;5086373;27;250074;-69
2022/01/08 05:26:12;;;;;;;24.25;8.68;;;1.50;99.90;;;;;;5121006;27;20028;-69
2022/01/08 05:28:38;;;;;;;20.42;8.55;;;1.40;99.90;;;;;;5084075;27;254166;-69
2022/01/08 05:31:04;;;;;;;18.92;8.38;;;1.40;99.90;;;;;;5097357;28;20483;-69
2022/01/08 05:33:30;;;;;;;22.80;8.82;;;1.40;99.90;;;;;;5109185;28;20051;-69
2022/01/08 05:35:57;;;;;;;21.45;8.98;;;1.40;99.90;;;;;;5096438;27;50784;-70
2022/01/08 05:38:23;;;;;;;22.77;9.05;;;1.40;99.90;;;;;;5105049;28;20404;-69
2022/01/08 05:40:49;;;;;;;28.42;9.70;;;1.40;99.90;;;;;;5082285;28;219759;-69
2022/01/08 05:43:15;;;;;;;24.40;9.05;;;1.40;99.90;;;;;;5101892;28;20051;-69
2022/01/08 05:45:41;;;;;;;24.38;9.90;;;1.30;99.90;;;;;;5099765;27;251559;-70
2022/01/08 05:48:08;;;;;;;28.15;9.13;;;1.30;99.90;;;;;;5105821;28;20502;-70
2022/01/08 05:50:35;;;;;;;23.27;8.77;;;1.30;99.90;;;;;;5092601;27;77323;-69
2022/01/08 05:53:01;;;;;;;25.38;8.90;;;1.30;99.90;;;;;;5097032;28;20504;-69
2022/01/08 05:55:27;;;;;;;20.45;8.57;;;1.30;99.90;;;;;;5083701;27;138482;-69
2022/01/08 05:57:53;;;;;;;21.98;8.68;;;1.20;99.90;;;;;;5101098;28;20044;-69
2022/01/08 06:00:19;;;;;;;25.40;8.90;;;1.30;99.90;;;;;;5077513;28;23867;-69
2022/01/08 06:02:45;;;;;;;24.02;8.68;;;1.30;99.90;;;;;;5101820;28;20151;-69
2022/01/08 06:05:11;;;;;;;21.67;8.70;;;1.30;99.90;;;;;;5066215;27;271654;-69
2022/01/08 06:07:37;;;;;;;22.42;8.77;;;1.30;99.90;;;;;;5111702;27;20052;-70
2022/01/08 06:10:04;;;;;;;25.27;8.68;;;1.30;99.90;;;;;;5084216;27;258398;-70
2022/01/08 06:12:31;;;;;;;22.45;8.65;;;1.30;99.90;;;;;;5102940;28;20047;-70
2022/01/08 06:14:57;;;;;;;20.58;8.18;;;1.20;99.90;;;;;;5080920;28;28677;-70
2022/01/08 06:17:23;;;;;;;27.95;9.00;;;1.20;99.90;;;;;;5096680;28;20078;-70
2022/01/08 06:19:50;;;;;;;24.00;8.27;;;1.20;99.90;;;;;;5091233;27;252118;-70
2022/01/08 06:22:16;;;;;;;22.85;9.05;;;1.20;99.90;;;;;;5108572;27;20047;-69
2022/01/08 06:24:42;;;;;;;24.70;8.60;;;1.20;99.90;;;;;;5091889;27;271654;-68
2022/01/08 06:27:08;;;;;;;28.05;8.15;;;1.20;99.90;;;;;;5098618;28;20056;-68
2022/01/08 06:29:34;;;;;;;21.13;8.30;;;1.20;99.90;;;;;;5090143;27;274825;-70
2022/01/08 06:32:00;;;;;;;23.15;8.35;;;1.20;99.90;;;;;;5107980;27;20377;-69
2022/01/08 06:34:27;;;;;;;24.77;8.52;;;1.10;99.90;;;;;;5083814;28;267991;-70
2022/01/08 06:36:53;;;;;;;22.70;8.88;;;1.10;99.90;;;;;;5100052;28;20055;-69
2022/01/08 06:39:19;;;;;;;19.10;8.35;;;1.10;99.90;;;;;;5080042;28;208957;-69
2022/01/08 06:41:46;;;;;;;22.30;8.32;;;1.10;99.90;;;;;;5092457;28;20388;-68
2022/01/08 06:44:12;;;;;;;21.77;7.90;;;1.10;99.90;;;;;;5086285;27;272132;-69
2022/01/08 06:46:40;;;;;;;24.27;8.07;;;1.00;99.90;;;;;;5101345;28;20419;-69
2022/01/08 06:49:07;;;;;;;20.13;8.40;;;1.10;99.90;;;;;;5084701;28;223159;-68
2022/01/08 06:51:34;;;;;;;28.70;8.77;;;1.00;99.90;;;;;;5113889;27;20047;-67
2022/01/08 06:54:00;;;;;;;26.67;8.50;;;1.00;99.90;;;;;;5086801;27;271491;-69
2022/01/08 06:56:26;;;;;;;22.52;7.85;;;1.00;99.90;;;;;;5115167;27;20052;-68
2022/01/08 06:58:52;;;;;;;22.35;7.80;;;1.00;99.90;;;;;;5088706;27;250002;-69
2022/01/08 07:01:18;;;;;;;26.00;7.85;;;1.00;99.90;;;;;;5118814;27;20047;-69
2022/01/08 07:03:44;;;;;;;18.60;7.63;;;0.90;99.90;;;;;;5068539;28;268070;-69
2022/01/08 07:06:10;;;;;;;25.00;7.68;;;0.90;99.90;;;;;;5103385;28;20066;-69
2022/01/08 07:08:36;;;;;;;21.13;7.55;;;0.90;99.90;;;;;;5087148;27;249294;-69
2022/01/08 07:11:03;;;;;;;22.27;7.88;;;0.90;99.90;;;;;;5117708;27;20059;-69
2022/01/08 07:13:29;;;;;;;24.73;8.10;;;1.00;99.90;;;;;;5107986;28;20044;-69
2022/01/08 07:15:55;;;;;;;26.27;7.38;;;1.00;99.90;;;;;;5083597;27;261349;-68
2022/01/08 07:18:21;;;;;;;23.60;7.47;;;0.90;99.90;;;;;;5106860;28;20059;-68
2022/01/08 07:20:47;;;;;;;21.60;7.80;;;0.90;99.90;;;;;;5084654;27;133452;-68
2022/01/08 07:23:13;;;;;;;20.92;7.57;;;0.90;99.90;;;;;;5105725;27;20056;-68
2022/01/08 07:25:39;;;;;;;23.23;7.10;;;0.90;99.90;;;;;;5103541;27;256134;-68
2022/01/08 07:28:05;;;;;;;18.52;7.35;;;0.90;99.90;;;;;;5108756;28;20040;-68
2022/01/08 07:30:31;;;;;;;23.27;7.28;;;0.90;99.90;;;;;;5101421;27;255152;-69
2022/01/08 07:32:57;;;;;;;23.40;7.43;;;0.90;99.90;;;;;;5108178;28;20051;-69
2022/01/08 07:35:24;;;;;;;21.70;7.07;;;0.90;99.90;;;;;;5100513;27;252666;-69
2022/01/08 07:37:52;;;;;;;25.48;8.02;;;0.90;99.90;;;;;;5106300;27;20036;-69
2022/01/08 07:40:19;;;;;;;17.67;6.80;;;0.90;99.90;;;;;;5073769;28;219309;-69
2022/01/08 07:42:45;;;;;;;25.52;7.78;;;0.90;99.90;;;;;;5103286;28;20415;-69
2022/01/08 07:45:12;;;;;;;23.25;7.63;;;1.00;99.90;;;;;;5081636;27;267308;-69
2022/01/08 07:47:38;;;;;;;23.52;7.70;;;1.00;99.90;;;;;;5104249;28;20063;-69
2022/01/08 07:50:06;;;;;;;27.35;7.88;;;0.90;99.90;;;;;;5098285;27;268706;-69
2022/01/08 07:52:32;;;;;;;22.23;7.18;;;1.00;99.90;;;;;;5083689;28;20054;-69
2022/01/08 07:54:58;;;;;;;23.23;7.80;;;0.90;99.90;;;;;;5085867;28;72803;-69
2022/01/08 07:57:24;;;;;;;22.48;7.78;;;1.00;99.90;;;;;;5104058;28;20532;-69
2022/01/08 07:59:50;;;;;;;23.13;7.20;;;1.00;99.90;;;;;;5093015;27;255920;-69
2022/01/08 08:02:17;;;;;;;28.92;7.85;;;0.90;99.90;;;;;;5108771;27;20376;-69
2022/01/08 08:04:44;;;;;;;21.73;7.70;;;1.00;99.90;;;;;;5079197;27;267426;-70
2022/01/08 08:07:10;;;;;;;26.48;7.70;;;1.00;99.90;;;;;;5113315;27;20066;-69
2022/01/08 08:09:36;;;;;;;25.48;8.60;;;1.00;99.90;;;;;;5092676;27;131604;-68
2022/01/08 08:12:04;;;;;;;24.30;7.75;;;1.00;99.90;;;;;;5110415;27;20506;-68
2022/01/08 08:14:31;;;;;;;24.17;7.93;;;1.10;99.90;;;;;;5091267;27;266660;-68
2022/01/08 08:16:57;;;;;;;28.73;7.95;;;1.10;99.90;;;;;;5100580;28;20059;-68
2022/01/08 08:19:23;;;;;;;19.88;6.70;;;1.10;99.90;;;;;;5085348;27;234181;-68
2022/01/08 08:21:49;;;;;;;20.75;8.07;;;1.10;99.90;;;;;;5110336;27;20043;-68
2022/01/08 08:24:18;;;;;;;24.52;8.35;;;1.10;99.90;;;;;;5092402;27;119224;-69
2022/01/08 08:26:45;;;;;;;25.60;8.65;;;1.20;99.90;;;;;;5099447;28;20052;-68
2022/01/08 08:29:11;;;;;;;22.80;7.30;;;1.20;99.90;;;;;;5087524;27;83102;-69
2022/01/08 08:31:37;;;;;;;19.13;7.47;;;1.20;99.90;;;;;;5088338;28;20054;-69
2022/01/08 08:34:03;;;;;;;23.88;8.68;;;1.30;99.90;;;;;;5093024;27;256963;-69
2022/01/08 08:36:29;;;;;;;22.60;8.07;;;1.30;99.90;;;;;;5104934;28;20446;-70
2022/01/08 08:38:55;;;;;;;22.70;7.65;;;1.40;99.90;;;;;;5084806;27;262174;-69
2022/01/08 08:41:21;;;;;;;22.70;7.28;;;1.40;99.90;;;;;;5102526;28;20052;-69
2022/01/08 08:43:47;;;;;;;20.17;7.03;;;1.40;99.90;;;;;;5082460;27;262444;-69
2022/01/08 08:46:13;;;;;;;23.58;7.10;;;1.50;99.90;;;;;;5097610;28;20051;-69
2022/01/08 08:48:39;;;;;;;18.38;7.10;;;1.50;99.90;;;;;;5086704;27;278861;-69
2022/01/08 08:51:05;;;;;;;21.48;6.05;;;1.50;99.90;;;;;;5118358;27;20047;-69
2022/01/08 08:53:32;;;;;;;21.77;6.10;;;1.60;99.90;;;;;;5100925;28;20055;-69
2022/01/08 08:55:58;;;;;;;18.80;5.82;;;1.60;99.90;;;;;;5079924;28;260035;-69
2022/01/08 08:58:24;;;;;;;28.30;6.72;;;1.60;99.90;;;;;;5105923;28;20530;-70
2022/01/08 09:00:51;;;;;;;19.65;6.35;;;1.70;99.90;;;;;;5096279;27;270338;-68
2022/01/08 09:03:17;;;;;;;23.67;5.97;;;1.70;99.90;;;;;;5108182;28;20389;-69
2022/01/08 09:05:43;;;;;;;19.55;6.07;;;1.70;99.90;;;;;;5075052;27;205027;-69
2022/01/08 09:08:09;;;;;;;21.77;5.72;;;1.80;99.90;;;;;;5104736;28;20047;-70
2022/01/08 09:10:35;;;;;;;22.17;6.15;;;1.80;99.90;;;;;;5097501;27;273590;-69
2022/01/08 09:13:02;;;;;;;21.90;6.43;;;1.80;99.90;;;;;;5102244;28;20380;-70
2022/01/08 09:15:28;;;;;;;20.00;6.53;;;1.90;99.90;;;;;;5091759;27;151235;-68
2022/01/08 09:17:57;;;;;;;19.85;5.97;;;1.90;99.90;;;;;;5102593;28;20130;-69
2022/01/08 09:20:24;;;;;;;19.55;6.30;;;1.90;99.90;;;;;;5102990;27;252029;-68
2022/01/08 09:22:51;;;;;;;21.88;6.38;;;2.00;99.90;;;;;;5104433;27;20075;-69
2022/01/08 09:25:17;;;;;;;19.27;6.18;;;2.00;99.90;;;;;;5083565;27;235491;-69
2022/01/08 09:27:44;;;;;;;20.38;6.53;;;2.00;99.90;;;;;;5100606;27;20503;-69
2022/01/08 09:30:10;;;;;;;17.73;6.78;;;2.00;99.90;;;;;;5089164;27;215417;-70
2022/01/08 09:32:37;;;;;;;22.90;6.50;;;2.10;99.90;;;;;;5104311;27;20052;-69
2022/01/08 09:35:04;;;;;;;17.58;5.97;;;2.10;99.90;;;;;;5092537;27;118263;-69
2022/01/08 09:37:30;;;;;;;18.42;6.13;;;2.10;99.90;;;;;;5099229;28;20055;-71
2022/01/08 09:39:56;;;;;;;19.95;6.45;;;2.20;99.90;;;;;;5081308;27;253430;-70
2022/01/08 09:42:22;;;;;;;17.30;6.07;;;2.20;99.90;;;;;;5101107;28;20047;-71
2022/01/08 09:44:49;;;;;;;21.35;6.45;;;2.20;99.90;;;;;;5091816;27;21154;-70
2022/01/08 09:47:15;;;;;;;24.35;6.53;;;2.20;99.90;;;;;;5106121;27;20052;-70
2022/01/08 09:49:41;;;;;;;18.38;7.00;;;2.20;99.90;;;;;;5083147;27;157193;-70
2022/01/08 09:52:08;;;;;;;19.58;7.18;;;2.30;99.90;;;;;;5104941;28;20062;-70
2022/01/08 09:54:34;;;;;;;23.00;7.65;;;2.30;99.90;;;;;;5088501;27;60205;-70
2022/01/08 09:57:01;;;;;;;17.73;6.80;;;2.30;99.90;;;;;;5100008;28;20565;-70
2022/01/08 09:59:28;;;;;;;19.13;6.80;;;2.30;99.90;;;;;;5097935;27;213052;-69
2022/01/08 10:01:58;;;;;;;21.77;6.65;;;2.30;99.90;;;;;;5088734;28;20048;-70
2022/01/08 10:04:42;;;;;;;16.33;7.03;;;2.40;99.90;;;;;;5068176;27;202942;-70
2022/01/08 10:07:19;;;;;;;24.08;7.00;;;2.40;99.90;;;;;;5097484;27;20067;-69
2022/01/08 10:10:00;;;;;;;21.50;7.47;;;2.40;99.90;;;;;;5080092;27;275441;-70
2022/01/08 10:12:47;;;;;;;20.48;6.88;;;2.40;99.90;;;;;;5101606;28;20051;-69
2022/01/08 10:18:01;;;;;;;21.13;7.13;;;2.50;99.90;;;;;;5099471;28;20054;-68
2022/01/08 10:20:37;;;;;;;18.70;7.03;;;2.60;99.90;;;;;;5093765;27;254363;-68
2022/01/08 10:23:15;;;;;;;18.27;6.60;;;2.60;99.90;;;;;;5101297;28;20058;-69
2022/01/08 10:26:09;;;;;;;16.08;5.80;;;2.70;99.90;;;;;;5095848;27;260249;-69
2022/01/08 10:28:42;;;;;;;19.80;6.20;;;2.70;99.90;;;;;;5078839;27;264428;-70
2022/01/08 10:31:23;;;;;;;22.33;6.68;;;2.80;99.90;;;;;;5098066;28;20130;-69
2022/01/08 10:34:01;;;;;;;16.75;6.50;;;2.80;99.90;;;;;;5082297;27;257717;-69
2022/01/08 10:36:39;;;;;;;22.05;7.40;;;2.80;99.90;;;;;;5100505;28;20040;-70
2022/01/08 10:39:08;;;;;;;16.27;6.53;;;2.90;99.90;;;;;;5085643;27;169084;-70
2022/01/08 10:41:42;;;;;;;19.00;7.32;;;2.90;99.90;;;;;;5100094;28;20384;-70
2022/01/08 10:44:17;;;;;;;19.05;7.50;;;2.90;99.90;;;;;;5077593;28;254602;-71
2022/01/08 10:46:53;;;;;;;17.05;7.32;;;2.90;99.90;;;;;;5089432;28;20067;-70
2022/01/08 10:49:29;;;;;;;19.67;8.07;;;3.00;99.90;;;;;;5086733;27;264764;-70
2022/01/08 10:52:00;;;;;;;20.02;8.32;;;2.90;99.90;;;;;;5099296;28;20059;-70
2022/01/08 10:54:27;;;;;;;;;;;3.00;99.90;;;;;;5092528;28;23895;-71
2022/01/08 10:59:31;;;;;;;22.10;8.70;;;3.00;99.90;;;;;;5071110;27;1998729;-86
2022/01/08 11:02:15;;;;;;;22.35;9.23;;;3.10;99.90;;;;;;5084735;28;20404;-85
2022/01/08 11:04:50;;;;;;;16.60;8.57;;;3.10;99.90;;;;;;5030304;28;197436;-84
2022/01/08 11:07:29;;;;;;;20.60;8.85;;;3.20;99.90;;;;;;5048564;28;20055;-86
2022/01/08 11:10:08;;;;;;;20.75;8.65;;;3.10;99.90;;;;;;5057861;28;255870;-85
2022/01/08 11:12:41;;;;;;;21.10;9.00;;;3.10;99.90;;;;;;5059331;28;20052;-85
2022/01/08 11:17:47;;;;;;;21.33;8.82;;;3.20;99.90;;;;;;5065255;28;20059;-86
2022/01/08 11:20:16;;;;;;;19.85;9.05;;;3.20;99.90;;;;;;5057561;28;253988;-85
2022/01/08 11:22:50;;;;;;;15.98;8.50;;;3.30;99.90;;;;;;5051640;28;20060;-86
2022/01/08 11:25:19;;;;;;;18.02;8.00;;;3.30;99.90;;;;;;5066279;28;254717;-85
2022/01/08 11:28:10;;;;;;;22.35;8.40;;;3.40;99.90;;;;;;5073922;28;20059;-85
2022/01/08 11:30:38;;;;;;;17.00;8.40;;;3.40;99.90;;;;;;5077706;28;259571;-85
2022/01/08 11:33:14;;;;;;;19.52;8.57;;;3.50;99.90;;;;;;5063192;28;20045;-84
2022/01/08 11:35:42;;;;;;;21.00;8.40;;;3.50;99.90;;;;;;5066190;28;31610;-85
2022/01/08 11:38:10;;;;;;;17.98;7.93;;;3.60;99.90;;;;;;5060365;28;20045;-85
2022/01/08 11:40:42;;;;;;;16.60;8.20;;;3.50;99.90;;;;;;5081826;28;241397;-86
2022/01/08 11:43:11;;;;;;;20.80;8.60;;;3.60;99.90;;;;;;5107105;28;20135;-86
2022/01/08 11:45:52;;;;;;;21.73;9.30;;;3.60;99.90;;;;;;5074202;28;251547;-84
2022/01/08 11:48:22;;;;;;;24.60;9.90;;;3.60;99.90;;;;;;5066225;28;20491;-84
2022/01/08 11:50:57;;;;;;;21.30;8.93;;;3.60;99.90;;;;;;5029286;28;182795;-83
2022/01/08 11:53:28;;;;;;;22.30;9.30;;;3.60;99.90;;;;;;5064390;28;20337;-87
2022/01/08 11:56:00;;;;;;;23.88;10.40;;;3.60;99.90;;;;;;5083747;28;46590;-87
2022/01/08 11:58:31;;;;;;;20.10;9.98;;;3.70;99.90;;;;;;5064234;28;20059;-85
2022/01/08 12:01:13;;;;;;;24.00;9.65;;;3.70;99.90;;;;;;5074323;28;229886;-85
2022/01/08 12:03:50;;;;;;;25.33;10.63;;;3.70;99.90;;;;;;5076872;28;260006;-85
2022/01/08 12:06:22;;;;;;;18.55;9.70;;;3.70;99.90;;;;;;5065394;28;20052;-85
2022/01/08 12:09:07;;;;;;;23.92;10.68;;;3.70;99.90;;;;;;5072295;28;250742;-84
2022/01/08 12:11:50;;;;;;;25.17;10.75;;;3.70;99.90;;;;;;5079732;28;20052;-86
2022/01/08 12:14:21;;;;;;;27.50;11.60;;;3.80;99.90;;;;;;5040842;28;250438;-85
2022/01/08 12:16:49;;;;;;;27.08;11.88;;;3.80;99.90;;;;;;5051857;28;20063;-85
2022/01/08 12:19:34;;;;;;;25.95;11.30;;;3.70;99.90;;;;;;5045505;28;230332;-84
2022/01/08 12:22:21;;;;;;;22.98;13.02;;;3.70;99.90;;;;;;5070477;28;20056;-85
2022/01/08 12:25:01;;;;;;;28.13;12.98;;;3.70;99.90;;;;;;5045243;28;272657;-88
2022/01/08 12:27:47;;;;;;;23.35;12.55;;;3.70;99.90;;;;;;5043255;28;20068;-90
2022/01/08 12:30:15;;;;;;;26.45;12.85;;;3.70;99.90;;;;;;5023391;28;198709;-87
2022/01/08 12:32:49;;;;;;;26.30;14.65;;;3.80;99.90;;;;;;5055911;28;20055;-88
2022/01/08 12:35:35;;;;;;;28.80;14.98;;;3.70;99.90;;;;;;5021333;28;273538;-88
2022/01/08 12:38:04;;;;;;;25.98;15.95;;;3.80;99.90;;;;;;5060023;28;20053;-87
2022/01/08 12:40:47;;;;;;;22.25;14.10;;;3.80;99.90;;;;;;5051682;28;194088;-86
2022/01/08 12:43:37;;;;;;;25.85;15.93;;;3.80;99.90;;;;;;5063679;28;20045;-86
2022/01/08 12:46:18;;;;;;;26.02;15.68;;;3.80;99.90;;;;;;5010345;28;20040;-86
2022/01/08 12:49:03;;;;;;;25.30;16.67;;;3.80;99.90;;;;;;5018683;28;242708;-86
2022/01/08 12:51:47;;;;;;;30.38;18.10;;;3.90;99.90;;;;;;5030604;28;20056;-86
2022/01/08 12:54:16;;;;;;;24.45;15.18;;;3.90;99.90;;;;;;5044457;28;224755;-86
2022/01/08 12:56:51;;;;;;;24.73;16.95;;;3.90;99.90;;;;;;5059184;28;20083;-86
2022/01/08 12:59:18;;;;;;;26.60;16.80;;;4.00;99.90;;;;;;5041090;28;216799;-85
2022/01/08 13:01:49;;;;;;;24.40;15.10;;;3.90;99.90;;;;;;5058148;28;21901;-84
2022/01/08 13:04:17;;;;;;;;;;;3.90;99.90;;;;;;5028919;28;257612;-85
2022/01/08 13:06:44;;;;;;;26.90;15.30;;;3.90;99.90;;;;;;5056597;28;19931;-85
2022/01/08 13:09:12;;;;;;;25.90;17.38;;;3.90;99.90;;;;;;5044405;28;88176;-85
2022/01/08 13:11:40;;;;;;;24.52;15.38;;;3.80;99.90;;;;;;5060669;28;20520;-85
2022/01/08 13:14:10;;;;;;;29.15;17.25;;;3.80;99.90;;;;;;5039489;28;20048;-85
2022/01/08 13:16:41;;;;;;;28.15;17.45;;;3.80;99.90;;;;;;5054600;28;20056;-85
2022/01/08 13:19:18;;;;;;;27.40;15.70;;;3.80;99.90;;;;;;5031129;28;243603;-86